Time;durP1;ratioP1;P1;durP2;ratioP2;P2;SDS_P1;SDS_P2;PMS_P1;PMS_P2;Temp;Humidity;BMP_temperature;BMP_pressure;BME280_temperature;BME280_humidity;BME280_pressure;Samples;Min_cycle;Max_cycle;Signal;HPM_P1;HPM_P2
2022/05/13 00:02:15;;;;;;;29.23;5.23;;;13.90;99.90;;;;;;5025204;28;20225;-80
2022/05/13 00:04:42;;;;;;;21.03;5.63;;;13.90;99.90;;;;;;5024232;28;20594;-83
2022/05/13 00:07:09;;;;;;;23.57;5.80;;;13.90;99.90;;;;;;5024896;28;20234;-81
2022/05/13 00:12:21;;;;;;;27.73;5.73;;;13.90;99.90;;;;;;5025537;28;20312;-81
2022/05/13 00:14:48;;;;;;;17.43;4.37;;;13.90;99.90;;;;;;5025259;28;20208;-81
2022/05/13 00:17:16;;;;;;;21.30;5.43;;;13.80;99.90;;;;;;5024990;28;20218;-80
2022/05/13 00:19:44;;;;;;;28.30;6.13;;;13.80;99.90;;;;;;5024576;28;20297;-81
2022/05/13 00:22:11;;;;;;;23.87;5.23;;;13.80;99.90;;;;;;5041557;28;20201;-81
2022/05/13 00:24:39;;;;;;;19.70;5.50;;;13.80;99.90;;;;;;5045705;28;20206;-81
2022/05/13 00:27:07;;;;;;;25.13;5.83;;;13.80;99.90;;;;;;5044860;28;20212;-79
2022/05/13 00:29:34;;;;;;;32.10;7.27;;;13.80;99.90;;;;;;5044950;28;20200;-82
2022/05/13 00:32:01;;;;;;;21.20;5.53;;;13.80;99.90;;;;;;5028765;28;20222;-82
2022/05/13 00:34:29;;;;;;;18.17;4.90;;;13.80;99.90;;;;;;5024883;28;20578;-81
2022/05/13 00:36:55;;;;;;;22.63;5.50;;;13.80;99.90;;;;;;5024371;28;20198;-80
2022/05/13 00:39:22;;;;;;;26.37;6.03;;;13.90;99.90;;;;;;5024455;28;20194;-78
2022/05/13 00:41:50;;;;;;;26.03;6.93;;;13.80;99.90;;;;;;5023790;28;20205;-79
2022/05/13 00:44:17;;;;;;;31.87;7.00;;;13.90;99.90;;;;;;5024047;28;20234;-80
2022/05/13 00:46:44;;;;;;;18.67;6.40;;;13.90;99.90;;;;;;5023156;28;20203;-78
2022/05/13 00:49:13;;;;;;;21.63;7.53;;;13.80;99.90;;;;;;5023575;28;20230;-78
2022/05/13 00:51:45;;;;;;;25.00;6.30;;;13.80;99.90;;;;;;5024227;28;20199;-79
2022/05/13 00:54:14;;;;;;;25.43;6.50;;;13.80;99.90;;;;;;5023045;28;20229;-78
2022/05/13 00:56:42;;;;;;;31.87;8.33;;;13.80;99.90;;;;;;5023515;28;20237;-79
2022/05/13 00:59:14;;;;;;;23.20;6.70;;;13.80;99.90;;;;;;5026574;28;20207;-79
2022/05/13 01:01:41;;;;;;;25.63;6.33;;;13.80;99.90;;;;;;5027720;28;20209;-79
2022/05/13 01:04:10;;;;;;;25.23;6.37;;;13.80;99.90;;;;;;5027384;28;20198;-78
2022/05/13 01:06:41;;;;;;;25.37;6.10;;;13.80;99.90;;;;;;5026716;28;20218;-79
2022/05/13 01:09:08;;;;;;;25.33;6.50;;;13.80;99.90;;;;;;5026946;28;20211;-77
2022/05/13 01:11:38;;;;;;;25.10;7.20;;;13.80;99.90;;;;;;5027075;28;20612;-78
2022/05/13 01:14:09;;;;;;;26.17;7.70;;;13.80;99.90;;;;;;5026840;28;20977;-78
2022/05/13 01:19:19;;;;;;;18.97;6.50;;;13.80;99.90;;;;;;5046001;28;20194;-79
2022/05/13 01:21:48;;;;;;;21.93;6.60;;;13.80;99.90;;;;;;5045146;28;20198;-80
2022/05/13 01:24:15;;;;;;;25.20;6.50;;;13.80;99.90;;;;;;5027526;28;20288;-80
2022/05/13 01:26:42;;;;;;;21.47;6.03;;;13.80;99.90;;;;;;5027795;28;20209;-78
2022/05/13 01:29:09;;;;;;;23.73;6.80;;;13.80;99.90;;;;;;5027004;28;20928;-79
2022/05/13 01:31:40;;;;;;;21.43;5.87;;;13.80;99.90;;;;;;5027623;28;20199;-79
2022/05/13 01:34:11;;;;;;;19.93;6.23;;;13.90;99.90;;;;;;5026461;28;20301;-78
2022/05/13 01:36:40;;;;;;;23.57;6.00;;;13.90;99.90;;;;;;5027395;28;20492;-80
2022/05/13 01:39:09;;;;;;;17.27;4.33;;;14.00;99.90;;;;;;5026914;28;20325;-79
2022/05/13 01:41:36;;;;;;;17.67;4.57;;;14.00;99.90;;;;;;5026900;28;20595;-82
2022/05/13 01:44:03;;;;;;;13.30;4.30;;;14.00;99.90;;;;;;5044467;28;20315;-82
2022/05/13 01:46:29;;;;;;;19.20;4.80;;;14.00;99.90;;;;;;5048178;28;20304;-83
2022/05/13 01:48:57;;;;;;;21.47;5.43;;;14.00;99.90;;;;;;5033244;28;20207;-80
2022/05/13 01:51:24;;;;;;;12.50;4.20;;;14.00;99.90;;;;;;5028634;28;20206;-80
2022/05/13 01:53:51;;;;;;;15.33;3.43;;;14.00;99.90;;;;;;5027553;28;20243;-82
2022/05/13 01:56:19;;;;;;;13.97;4.70;;;14.00;99.90;;;;;;5027850;28;20544;-83
2022/05/13 01:58:46;;;;;;;10.47;2.77;;;14.00;99.90;;;;;;5028136;28;20306;-79
2022/05/13 02:01:13;;;;;;;16.20;3.43;;;14.00;99.90;;;;;;5027789;28;20214;-80
2022/05/13 02:03:49;;;;;;;15.37;3.03;;;14.00;99.90;;;;;;5026988;28;20197;-82
2022/05/13 02:06:18;;;;;;;13.07;3.27;;;14.10;99.90;;;;;;5027867;28;20245;-81
2022/05/13 02:08:46;;;;;;;10.93;3.13;;;14.00;99.90;;;;;;5026486;28;20269;-81
2022/05/13 02:11:13;;;;;;;11.70;3.17;;;14.10;99.90;;;;;;5026480;28;20203;-81
2022/05/13 02:13:41;;;;;;;10.50;3.40;;;14.00;99.90;;;;;;5027028;28;20218;-81
2022/05/13 02:16:08;;;;;;;12.43;2.93;;;14.00;99.90;;;;;;5026329;28;20217;-81
2022/05/13 02:18:35;;;;;;;8.27;2.57;;;14.00;99.90;;;;;;5026925;28;20212;-81
2022/05/13 02:21:02;;;;;;;12.00;2.83;;;14.10;99.90;;;;;;5027992;28;20217;-80
2022/05/13 02:23:29;;;;;;;8.87;2.77;;;14.10;99.90;;;;;;5027301;28;20203;-81
2022/05/13 02:26:00;;;;;;;8.97;2.30;;;14.10;99.90;;;;;;5026769;28;20602;-80
2022/05/13 02:28:26;;;;;;;8.63;2.40;;;14.10;99.90;;;;;;5026642;28;20202;-81
2022/05/13 02:30:55;;;;;;;8.47;2.53;;;14.00;99.90;;;;;;5025489;28;20210;-82
2022/05/13 02:33:21;;;;;;;11.10;2.87;;;14.00;99.90;;;;;;5025984;28;20545;-80
2022/05/13 02:35:48;;;;;;;11.40;3.47;;;14.00;99.90;;;;;;5025770;28;20215;-81
2022/05/13 02:38:16;;;;;;;8.03;3.27;;;14.00;99.90;;;;;;5024957;28;20207;-81
2022/05/13 02:43:27;;;;;;;11.70;3.93;;;13.80;99.90;;;;;;5025847;28;20198;-80
2022/05/13 02:45:56;;;;;;;12.63;4.43;;;13.90;99.90;;;;;;5025807;28;20504;-80
2022/05/13 02:48:23;;;;;;;15.97;4.13;;;13.90;99.90;;;;;;5026951;28;20853;-84
2022/05/13 02:50:50;;;;;;;10.73;3.00;;;13.90;99.90;;;;;;5035232;28;20206;-80
2022/05/13 02:53:17;;;;;;;12.20;3.37;;;14.00;99.90;;;;;;5045552;28;20592;-80
2022/05/13 02:55:43;;;;;;;9.53;3.30;;;13.90;99.90;;;;;;5040105;28;20638;-81
2022/05/13 02:58:10;;;;;;;11.83;3.37;;;13.90;99.90;;;;;;5026761;28;20260;-82
2022/05/13 03:00:37;;;;;;;9.37;2.70;;;13.90;99.90;;;;;;5027062;28;20225;-81
2022/05/13 03:03:06;;;;;;;12.20;2.40;;;13.90;99.90;;;;;;5027449;28;20206;-79
2022/05/13 03:05:34;;;;;;;7.63;2.90;;;13.90;99.90;;;;;;5026993;28;20206;-81
2022/05/13 03:08:01;;;;;;;14.73;3.00;;;13.90;99.90;;;;;;5026351;28;20214;-81
2022/05/13 03:10:29;;;;;;;9.47;2.47;;;13.90;99.90;;;;;;5027118;28;20210;-80
2022/05/13 03:12:56;;;;;;;8.40;2.90;;;13.80;99.90;;;;;;5025395;28;20230;-80
2022/05/13 03:15:23;;;;;;;12.17;3.73;;;13.90;99.90;;;;;;5026445;28;20214;-80
2022/05/13 03:17:51;;;;;;;10.73;2.77;;;13.90;99.90;;;;;;5026959;28;20274;-81
2022/05/13 03:20:21;;;;;;;7.40;2.57;;;13.90;99.90;;;;;;5025939;28;20209;-80
2022/05/13 03:22:49;;;;;;;6.30;2.53;;;13.90;99.90;;;;;;5026468;28;20210;-80
2022/05/13 03:25:16;;;;;;;8.07;3.10;;;13.90;99.90;;;;;;5026206;28;20226;-80
2022/05/13 03:27:43;;;;;;;10.90;2.73;;;13.90;99.90;;;;;;5045387;28;20402;-79
2022/05/13 03:30:13;;;;;;;8.63;2.87;;;13.90;99.90;;;;;;5041786;28;20898;-79
2022/05/13 03:32:39;;;;;;;7.73;2.67;;;13.80;99.90;;;;;;5026154;28;20203;-82
2022/05/13 03:35:09;;;;;;;10.17;2.70;;;13.80;99.90;;;;;;5025486;28;20202;-80
2022/05/13 03:37:37;;;;;;;12.27;3.33;;;13.90;99.90;;;;;;5025927;28;20210;-79
2022/05/13 03:40:05;;;;;;;12.57;4.13;;;13.80;99.90;;;;;;5025853;28;20199;-80
2022/05/13 03:42:32;;;;;;;20.07;4.80;;;13.90;99.90;;;;;;5025163;28;20194;-80
2022/05/13 03:44:59;;;;;;;15.07;4.87;;;13.90;99.90;;;;;;5025751;28;20677;-82
2022/05/13 03:47:25;;;;;;;9.47;3.77;;;13.90;99.90;;;;;;5027014;28;20212;-81
2022/05/13 03:49:52;;;;;;;12.93;3.87;;;13.90;99.90;;;;;;5026781;28;20203;-81
2022/05/13 03:52:19;;;;;;;14.00;4.17;;;13.90;99.90;;;;;;5027171;28;20225;-80
2022/05/13 03:54:47;;;;;;;10.33;3.60;;;13.90;99.90;;;;;;5026669;28;20230;-79
2022/05/13 03:57:14;;;;;;;9.83;3.50;;;13.90;99.90;;;;;;5026299;28;20230;-81
2022/05/13 03:59:41;;;;;;;9.23;3.57;;;13.80;99.90;;;;;;5026209;28;20217;-81
2022/05/13 04:02:08;;;;;;;14.60;3.27;;;13.80;99.90;;;;;;5025937;28;21062;-83
2022/05/13 04:08:56;;;;;;;16.60;3.80;;;13.80;99.90;;;;;;5027106;28;20198;-80
2022/05/13 04:10:10;;;;;;;11.67;3.00;;;13.90;99.90;;;;;;5041060;28;20259;-82
2022/05/13 04:18:06;;;;;;;12.00;3.93;;;13.80;99.90;;;;;;5026661;28;20236;-81
2022/05/13 04:20:34;;;;;;;14.60;3.23;;;13.90;99.90;;;;;;5027067;28;20286;-84
2022/05/13 04:23:01;;;;;;;12.00;3.87;;;13.80;99.90;;;;;;5025770;28;20210;-81
2022/05/13 04:25:29;;;;;;;14.93;4.53;;;13.90;99.90;;;;;;5038652;28;20233;-81
2022/05/13 04:27:56;;;;;;;12.30;3.73;;;13.80;99.90;;;;;;5045232;28;20206;-81
2022/05/13 04:30:23;;;;;;;14.67;3.73;;;13.90;99.90;;;;;;5044888;28;20206;-81
2022/05/13 04:32:49;;;;;;;11.87;3.50;;;13.90;99.90;;;;;;5032554;28;20212;-82
2022/05/13 04:35:16;;;;;;;12.63;3.97;;;13.80;99.90;;;;;;5030572;28;20202;-82
2022/05/13 04:37:44;;;;;;;10.97;3.60;;;13.80;99.90;;;;;;5029620;28;20269;-82
2022/05/13 04:40:12;;;;;;;10.37;3.43;;;13.80;99.90;;;;;;5031205;28;20202;-82
2022/05/13 04:42:51;;;;;;;12.37;4.13;;;13.80;99.90;;;;;;5030789;28;20214;-81
2022/05/13 04:45:23;;;;;;;13.43;3.57;;;13.80;99.90;;;;;;5030938;28;20202;-82
2022/05/13 04:50:36;;;;;;;19.03;3.73;;;13.80;99.90;;;;;;5031416;28;20232;-81
2022/05/13 04:53:03;;;;;;;11.53;3.10;;;13.80;99.90;;;;;;5030939;28;20202;-79
2022/05/13 04:55:30;;;;;;;11.07;3.03;;;13.80;99.90;;;;;;5031177;28;20199;-82
2022/05/13 04:57:58;;;;;;;10.43;2.70;;;13.90;99.90;;;;;;5031390;28;20198;-79
2022/05/13 05:00:25;;;;;;;10.07;2.83;;;13.90;99.90;;;;;;5030559;28;20229;-82
2022/05/13 05:02:52;;;;;;;6.87;2.73;;;13.90;99.90;;;;;;5044709;28;20210;-80
2022/05/13 05:05:18;;;;;;;11.60;2.80;;;13.90;99.90;;;;;;5050527;28;20209;-84
2022/05/13 05:07:45;;;;;;;12.23;3.33;;;13.90;99.90;;;;;;5038760;28;20226;-80
2022/05/13 05:10:12;;;;;;;10.13;2.80;;;14.00;99.90;;;;;;5030988;28;20202;-80
2022/05/13 05:12:39;;;;;;;11.30;2.63;;;14.00;99.90;;;;;;5030491;28;20198;-83
2022/05/13 05:15:09;;;;;;;13.40;4.27;;;14.00;99.90;;;;;;5030267;28;20240;-83
2022/05/13 05:17:36;;;;;;;18.47;3.73;;;14.10;99.90;;;;;;5034831;28;20219;-81
2022/05/13 05:20:05;;;;;;;8.73;3.33;;;14.10;99.90;;;;;;5033907;28;20203;-80
2022/05/13 05:22:32;;;;;;;10.10;2.90;;;14.20;99.90;;;;;;5040740;28;20207;-84
2022/05/13 05:24:58;;;;;;;13.87;2.60;;;14.20;99.90;;;;;;5037448;28;20201;-85
2022/05/13 05:27:25;;;;;;;9.00;2.50;;;14.20;99.90;;;;;;5049088;28;20202;-84
2022/05/13 05:29:52;;;;;;;9.40;2.47;;;14.20;99.90;;;;;;5055863;28;20198;-83
2022/05/13 05:32:20;;;;;;;15.37;2.70;;;14.20;99.90;;;;;;5054620;28;20214;-81
2022/05/13 05:34:47;;;;;;;11.83;2.40;;;14.10;99.90;;;;;;5048530;28;20229;-84
2022/05/13 05:37:14;;;;;;;10.70;3.13;;;14.10;99.90;;;;;;5038632;28;20214;-80
2022/05/13 05:39:41;;;;;;;9.27;2.23;;;14.10;99.90;;;;;;5029032;28;20221;-81
2022/05/13 05:42:10;;;;;;;8.37;2.50;;;14.10;99.90;;;;;;5047668;28;20217;-82
2022/05/13 05:44:39;;;;;;;8.47;2.27;;;14.10;99.90;;;;;;5028791;28;20246;-81
2022/05/13 05:47:06;;;;;;;8.00;2.60;;;14.00;99.90;;;;;;5029243;28;20217;-81
2022/05/13 05:49:35;;;;;;;11.23;2.90;;;14.00;99.90;;;;;;5026631;28;20210;-81
2022/05/13 05:52:01;;;;;;;9.27;2.43;;;14.10;99.90;;;;;;5027920;28;20206;-79
2022/05/13 05:57:16;;;;;;;12.93;2.57;;;14.10;99.90;;;;;;5028341;28;20273;-79
2022/05/13 05:59:43;;;;;;;10.17;3.07;;;14.10;99.90;;;;;;5027856;28;20217;-81
2022/05/13 06:02:11;;;;;;;6.97;2.23;;;14.10;99.90;;;;;;5026938;28;20202;-81
2022/05/13 06:04:39;;;;;;;8.43;2.43;;;14.10;99.90;;;;;;5010690;28;20206;-79
2022/05/13 06:07:07;;;;;;;8.53;1.90;;;14.10;99.90;;;;;;5027524;28;20244;-79
2022/05/13 06:09:34;;;;;;;5.80;1.83;;;14.20;99.90;;;;;;5027326;28;20203;-80
2022/05/13 06:12:01;;;;;;;10.77;2.50;;;14.50;99.90;;;;;;5027743;28;20222;-81
2022/05/13 06:14:28;;;;;;;10.03;3.07;;;14.80;99.90;;;;;;5041415;28;20225;-82
2022/05/13 06:16:56;;;;;;;9.30;2.33;;;15.20;99.90;;;;;;5039569;28;20206;-82
2022/05/13 06:19:24;;;;;;;12.53;3.40;;;15.60;99.90;;;;;;5025682;28;20199;-82
2022/05/13 06:21:53;;;;;;;11.27;3.20;;;15.80;99.90;;;;;;5027438;28;20230;-82
2022/05/13 06:24:20;;;;;;;9.70;3.30;;;16.00;99.90;;;;;;5026687;28;20207;-81
2022/05/13 06:26:48;;;;;;;10.10;1.93;;;16.20;99.90;;;;;;5009966;28;20198;-80
2022/05/13 06:29:15;;;;;;;6.82;2.40;;;16.50;99.90;;;;;;5027131;28;20205;-81
2022/05/13 06:31:42;;;;;;;11.10;2.65;;;16.70;99.90;;;;;;5027254;28;20205;-81
2022/05/13 06:34:10;;;;;;;7.90;2.35;;;16.80;99.90;;;;;;5027379;28;20630;-81
2022/05/13 06:36:37;;;;;;;11.88;2.30;;;17.00;99.90;;;;;;5026785;28;20197;-81
2022/05/13 06:39:06;;;;;;;10.80;2.08;;;17.10;99.90;;;;;;5027040;28;20206;-82
2022/05/13 06:41:37;;;;;;;8.85;2.70;;;17.10;99.90;;;;;;5040170;28;20285;-82
2022/05/13 06:44:05;;;;;;;7.90;1.90;;;17.30;99.90;;;;;;5047927;28;20201;-80
2022/05/13 06:46:33;;;;;;;6.63;2.17;;;17.20;99.90;;;;;;5048291;28;20205;-84
2022/05/13 06:49:00;;;;;;;10.32;1.98;;;17.30;99.90;;;;;;5045903;28;20206;-83
2022/05/13 06:51:27;;;;;;;7.88;2.28;;;17.60;99.90;;;;;;5045423;28;20213;-84
2022/05/13 06:53:54;;;;;;;7.55;2.10;;;17.70;99.90;;;;;;5031643;28;20229;-80
2022/05/13 06:56:22;;;;;;;8.30;2.15;;;17.70;99.90;;;;;;5037383;28;20233;-82
2022/05/13 06:58:49;;;;;;;10.73;2.17;;;17.70;99.90;;;;;;5043511;28;20218;-80
2022/05/13 07:01:17;;;;;;;6.22;2.00;;;17.70;99.90;;;;;;5042793;28;20248;-82
2022/05/13 07:03:44;;;;;;;8.80;2.40;;;17.90;99.90;;;;;;5044664;28;20278;-80
2022/05/13 07:06:11;;;;;;;7.22;2.05;;;17.80;99.90;;;;;;5044545;28;20884;-82
2022/05/13 07:08:37;;;;;;;9.48;1.77;;;17.90;99.90;;;;;;5042582;28;20516;-81
2022/05/13 07:11:04;;;;;;;7.78;1.92;;;17.90;99.90;;;;;;5045458;28;20218;-81
2022/05/13 07:13:33;;;;;;;9.98;2.00;;;18.00;99.90;;;;;;5044847;28;20220;-80
2022/05/13 07:16:00;;;;;;;10.48;2.65;;;18.20;99.90;;;;;;5043573;28;20655;-84
2022/05/13 07:18:27;;;;;;;11.13;2.65;;;18.20;99.90;;;;;;5045289;28;20329;-82
2022/05/13 07:20:54;;;;;;;8.52;2.40;;;18.10;99.90;;;;;;5043833;28;20225;-82
2022/05/13 07:23:20;;;;;;;8.75;2.17;;;18.00;99.90;;;;;;5043474;28;20214;-81
2022/05/13 07:25:47;;;;;;;9.00;2.65;;;17.90;99.90;;;;;;5041496;28;20206;-82
2022/05/13 07:28:14;;;;;;;10.98;2.72;;;18.10;99.90;;;;;;5043544;28;20571;-82
2022/05/13 07:30:42;;;;;;;8.23;2.10;;;18.10;99.90;;;;;;5044367;28;20224;-81
2022/05/13 07:33:09;;;;;;;10.43;2.42;;;18.00;99.90;;;;;;5041002;28;20214;-83
2022/05/13 07:35:36;;;;;;;11.13;1.95;;;17.80;99.90;;;;;;5043226;28;20229;-83
2022/05/13 07:38:05;;;;;;;9.40;2.10;;;17.80;99.90;;;;;;5045891;28;20722;-82
2022/05/13 07:43:18;;;;;;;7.47;2.28;;;18.10;99.90;;;;;;5039771;28;20212;-82
2022/05/13 07:45:47;;;;;;;7.50;2.17;;;18.30;99.90;;;;;;5041366;28;20210;-81
2022/05/13 07:48:13;;;;;;;7.30;2.38;;;18.50;99.90;;;;;;5040473;28;20228;-82
2022/05/13 07:50:42;;;;;;;6.28;2.53;;;18.60;99.90;;;;;;5044258;28;20218;-81
2022/05/13 07:53:08;;;;;;;9.38;2.40;;;18.70;99.90;;;;;;5041809;28;20229;-81
2022/05/13 07:55:35;;;;;;;8.50;2.20;;;18.60;99.90;;;;;;5042467;28;20236;-81
2022/05/13 07:58:02;;;;;;;8.70;2.40;;;18.40;99.90;;;;;;5043147;28;20243;-81
2022/05/13 08:00:32;;;;;;;6.95;2.33;;;18.30;99.90;;;;;;5043193;28;20217;-84
2022/05/13 08:03:02;;;;;;;11.20;3.00;;;18.50;99.90;;;;;;5043019;28;20644;-81
2022/05/13 08:05:31;;;;;;;11.23;3.63;;;18.70;99.90;;;;;;5039811;28;20213;-82
2022/05/13 08:08:04;;;;;;;9.75;2.45;;;18.70;99.90;;;;;;5041915;28;20268;-81
2022/05/13 08:10:31;;;;;;;6.82;2.08;;;18.60;99.90;;;;;;5040807;28;20229;-83
2022/05/13 08:12:58;;;;;;;8.13;2.45;;;18.60;99.90;;;;;;5044040;28;20214;-80
2022/05/13 08:15:25;;;;;;;10.80;2.70;;;18.60;99.90;;;;;;5044025;28;20233;-81
2022/05/13 08:17:52;;;;;;;9.45;2.60;;;18.70;99.90;;;;;;5044152;28;20547;-83
2022/05/13 08:20:20;;;;;;;11.18;3.13;;;18.80;99.90;;;;;;5036816;28;20220;-82
2022/05/13 08:22:47;;;;;;;10.00;2.40;;;18.90;99.90;;;;;;5043774;28;20205;-84
2022/05/13 08:25:14;;;;;;;11.45;2.58;;;18.70;99.90;;;;;;5046591;28;20206;-81
2022/05/13 08:27:41;;;;;;;9.23;2.25;;;18.70;99.90;;;;;;5036375;28;20206;-82
2022/05/13 08:30:10;;;;;;;11.35;3.58;;;18.80;99.90;;;;;;5025127;28;20194;-80
2022/05/13 08:32:38;;;;;;;7.80;2.05;;;19.00;99.90;;;;;;5025180;28;20652;-81
2022/05/13 08:35:06;;;;;;;10.25;2.40;;;19.20;99.90;;;;;;5025215;28;20232;-82
2022/05/13 08:37:40;;;;;;;9.73;2.40;;;19.40;99.90;;;;;;5025739;28;20603;-82
2022/05/13 08:40:08;;;;;;;6.47;2.60;;;19.50;99.90;;;;;;5025506;28;20252;-82
2022/05/13 08:42:39;;;;;;;11.20;2.83;;;19.60;99.90;;;;;;5024789;28;20206;-82
2022/05/13 08:45:10;;;;;;;8.32;2.95;;;19.70;99.90;;;;;;5035843;28;20194;-82
2022/05/13 08:47:48;;;;;;;9.38;2.85;;;19.60;99.90;;;;;;5044044;28;20202;-80
2022/05/13 08:50:20;;;;;;;5.28;2.20;;;19.70;99.90;;;;;;5024316;28;20601;-81
2022/05/13 08:53:08;;;;;;;9.48;2.13;;;19.70;99.90;;;;;;5024723;28;20626;-82
2022/05/13 08:55:38;;;;;;;6.65;2.20;;;19.70;99.90;;;;;;5024033;28;20235;-81
2022/05/13 08:58:08;;;;;;;5.80;1.98;;;19.90;99.90;;;;;;5024009;28;20199;-84
2022/05/13 09:00:39;;;;;;;10.43;2.90;;;20.00;99.90;;;;;;5025779;28;20202;-82
2022/05/13 09:03:14;;;;;;;6.78;2.00;;;20.10;99.90;;;;;;5026165;28;20666;-82
2022/05/13 09:05:46;;;;;;;6.50;2.30;;;20.00;99.90;;;;;;5024504;28;20195;-80
2022/05/13 09:08:14;;;;;;;9.02;2.55;;;20.00;99.90;;;;;;5025276;28;20233;-80
2022/05/13 09:10:54;;;;;;;7.95;2.28;;;20.00;99.90;;;;;;5025451;28;20203;-79
2022/05/13 09:13:29;;;;;;;8.77;2.42;;;20.30;99.90;;;;;;5023741;28;20190;-80
2022/05/13 09:15:56;;;;;;;10.57;2.45;;;20.60;99.90;;;;;;5024044;28;20785;-80
2022/05/13 09:18:32;;;;;;;12.88;2.42;;;20.80;99.90;;;;;;5024678;28;20316;-80
2022/05/13 09:21:02;;;;;;;8.45;2.22;;;21.00;99.90;;;;;;5027327;28;20215;-84
2022/05/13 09:23:31;;;;;;;7.97;2.88;;;21.30;99.90;;;;;;5027974;28;20242;-79
2022/05/13 09:26:05;;;;;;;7.18;2.08;;;21.50;99.90;;;;;;5027958;28;20210;-86
2022/05/13 09:28:35;;;;;;;9.38;2.60;;;21.70;99.90;;;;;;5029836;28;20195;-82
2022/05/13 09:31:07;;;;;;;11.15;2.60;;;21.70;99.90;;;;;;5047062;28;20320;-83
2022/05/13 09:33:36;;;;;;;9.25;2.47;;;21.60;99.90;;;;;;5036500;28;20206;-83
2022/05/13 09:36:07;;;;;;;8.13;2.33;;;21.20;99.90;;;;;;5028159;28;20223;-81
2022/05/13 09:38:43;;;;;;;8.80;3.83;;;21.00;99.90;;;;;;5027366;28;20256;-81
2022/05/13 09:41:12;;;;;;;14.82;3.30;;;21.20;99.90;;;;;;5027936;28;20326;-82
2022/05/13 09:43:41;;;;;;;16.88;3.78;;;21.40;99.90;;;;;;5030274;28;20214;-82
2022/05/13 09:46:10;;;;;;;10.27;3.45;;;21.40;99.90;;;;;;5048469;28;20201;-81
2022/05/13 09:48:38;;;;;;;9.48;3.58;;;21.80;99.90;;;;;;5047833;28;20745;-79
2022/05/13 09:51:23;;;;;;;17.30;3.08;;;21.80;99.90;;;;;;5031456;28;20217;-84
2022/05/13 09:54:13;;;;;;;11.05;3.13;;;21.70;99.90;;;;;;5029242;28;20187;-80
2022/05/13 09:56:43;;;;;;;10.02;3.17;;;21.60;99.90;;;;;;5029377;28;20250;-80
2022/05/13 09:59:17;;;;;;;9.18;3.08;;;21.20;99.90;;;;;;5028283;28;20217;-83
2022/05/13 10:01:44;;;;;;;7.88;3.17;;;21.00;99.90;;;;;;5028378;28;20288;-82
2022/05/13 10:04:13;;;;;;;12.38;3.92;;;20.90;99.90;;;;;;5028474;28;20197;-82
2022/05/13 10:06:42;;;;;;;11.73;3.13;;;20.90;99.90;;;;;;5028079;28;20229;-80
2022/05/13 10:15:08;;;;;;;11.85;4.13;;;20.80;99.90;;;;;;5025669;28;20214;-81
2022/05/13 10:17:41;;;;;;;9.38;3.20;;;20.80;99.90;;;;;;5030985;28;20856;-83
2022/05/13 10:20:11;;;;;;;9.32;3.35;;;20.80;99.90;;;;;;5043094;28;21054;-85
2022/05/13 10:22:45;;;;;;;12.10;2.92;;;20.70;99.90;;;;;;5044509;28;20211;-80
2022/05/13 10:25:18;;;;;;;17.80;3.83;;;20.70;99.90;;;;;;5044582;28;20236;-81
2022/05/13 10:27:51;;;;;;;11.35;3.55;;;20.60;99.90;;;;;;5041510;28;20214;-81
2022/05/13 10:30:30;;;;;;;10.73;3.20;;;20.30;99.90;;;;;;5040105;28;20213;-80
2022/05/13 10:33:02;;;;;;;8.88;3.65;;;20.50;99.90;;;;;;5043644;28;20194;-80
2022/05/13 10:35:47;;;;;;;10.07;2.67;;;20.80;99.90;;;;;;5043913;28;20622;-82
2022/05/13 10:38:22;;;;;;;9.40;3.58;;;20.80;99.90;;;;;;5044431;28;20213;-81
2022/05/13 10:40:51;;;;;;;8.10;2.75;;;20.90;99.90;;;;;;5044232;28;20217;-81
2022/05/13 10:43:27;;;;;;;8.38;2.90;;;21.10;99.90;;;;;;5044587;28;20220;-83
2022/05/13 10:46:01;;;;;;;9.75;3.20;;;20.90;99.90;;;;;;5045993;28;20597;-82
2022/05/13 10:48:30;;;;;;;12.43;3.78;;;21.00;99.90;;;;;;5043113;28;20206;-85
2022/05/13 10:51:17;;;;;;;11.23;3.65;;;20.80;99.90;;;;;;5045426;28;20213;-86
2022/05/13 10:54:13;;;;;;;9.48;3.63;;;20.70;99.90;;;;;;5043021;28;20819;-84
2022/05/13 10:56:49;;;;;;;12.68;2.88;;;20.50;99.90;;;;;;5045380;28;20238;-85
2022/05/13 10:59:30;;;;;;;12.82;3.50;;;20.40;99.90;;;;;;5046148;28;20205;-85
2022/05/13 11:02:08;;;;;;;13.75;3.95;;;20.50;99.90;;;;;;5043093;28;20197;-83
2022/05/13 11:04:41;;;;;;;11.48;3.67;;;20.60;99.90;;;;;;5044094;28;20210;-84
2022/05/13 11:07:20;;;;;;;11.63;3.28;;;20.40;99.90;;;;;;5049866;28;20226;-82
2022/05/13 11:09:53;;;;;;;12.10;3.58;;;20.20;99.90;;;;;;5045079;28;20205;-88
2022/05/13 11:12:33;;;;;;;14.88;4.05;;;20.40;99.90;;;;;;5043527;28;20209;-88
2022/05/13 11:15:15;;;;;;;13.73;3.67;;;20.70;99.90;;;;;;5047052;28;20206;-86
2022/05/13 11:17:53;;;;;;;11.65;2.90;;;20.80;99.90;;;;;;5047814;28;20205;-88
2022/05/13 11:20:29;;;;;;;12.07;3.35;;;21.00;99.90;;;;;;5045899;28;20288;-82
2022/05/13 11:23:15;;;;;;;8.10;2.78;;;21.00;99.90;;;;;;5050178;28;20781;-84
2022/05/13 11:26:08;;;;;;;9.02;3.40;;;21.20;99.90;;;;;;5055642;28;20205;-87
2022/05/13 11:28:54;;;;;;;15.23;3.63;;;21.20;99.90;;;;;;5050517;28;20212;-83
2022/05/13 11:31:46;;;;;;;10.55;3.38;;;21.20;99.90;;;;;;5050640;28;20194;-84
2022/05/13 11:34:23;;;;;;;12.20;3.13;;;21.40;99.90;;;;;;5045365;28;20213;-85
2022/05/13 11:36:58;;;;;;;10.18;2.88;;;21.60;99.90;;;;;;5038153;28;20217;-84
2022/05/13 11:39:44;;;;;;;9.88;3.05;;;21.40;99.90;;;;;;5028495;28;20204;-84
2022/05/13 11:42:33;;;;;;;13.30;3.33;;;21.20;99.90;;;;;;5026156;28;20198;-79
2022/05/13 11:45:21;;;;;;;15.82;3.17;;;21.10;99.90;;;;;;5026410;28;20206;-86
2022/05/13 11:47:57;;;;;;;9.55;3.20;;;21.10;99.90;;;;;;5027153;28;20597;-84
2022/05/13 11:50:25;;;;;;;9.65;3.08;;;21.20;99.90;;;;;;5027136;28;20272;-82
2022/05/13 11:52:53;;;;;;;15.20;3.42;;;21.30;99.90;;;;;;5027715;28;20265;-88
2022/05/13 11:55:23;;;;;;;10.40;3.13;;;21.50;99.90;;;;;;5027972;28;20305;-83
2022/05/13 11:57:52;;;;;;;14.10;2.80;;;21.60;99.90;;;;;;5026682;28;20332;-80
2022/05/13 12:00:37;;;;;;;14.98;3.65;;;21.60;99.90;;;;;;5042968;28;20202;-86
2022/05/13 12:03:16;;;;;;;15.55;3.85;;;21.60;99.90;;;;;;5047048;28;20206;-85
2022/05/13 12:06:04;;;;;;;13.20;3.60;;;21.30;99.90;;;;;;5046800;28;20805;-82
2022/05/13 12:08:41;;;;;;;10.90;3.30;;;21.10;99.90;;;;;;5040882;28;20206;-83
2022/05/13 12:11:29;;;;;;;12.88;3.40;;;21.10;99.90;;;;;;5029529;28;20202;-88
2022/05/13 12:14:09;;;;;;;10.43;3.13;;;21.20;99.90;;;;;;5028088;28;20203;-85
2022/05/13 12:16:45;;;;;;;14.00;3.47;;;21.20;99.90;;;;;;5028312;28;20210;-82
2022/05/13 12:19:35;;;;;;;12.57;3.30;;;21.10;99.90;;;;;;5027479;28;20244;-85
2022/05/13 12:22:09;;;;;;;13.85;3.83;;;21.30;99.90;;;;;;5027795;28;20198;-84
2022/05/13 12:24:57;;;;;;;11.48;3.35;;;21.50;99.90;;;;;;5027713;28;20525;-86
2022/05/13 12:27:36;;;;;;;11.30;2.88;;;21.80;99.90;;;;;;5027966;28;20210;-81
2022/05/13 12:30:13;;;;;;;12.00;3.00;;;21.70;99.90;;;;;;5035779;28;20201;-86
2022/05/13 12:32:45;;;;;;;9.88;2.60;;;21.60;99.90;;;;;;5047932;28;20190;-86
2022/05/13 12:38:07;;;;;;;12.82;3.58;;;21.60;99.90;;;;;;5027662;28;20202;-82
2022/05/13 12:40:37;;;;;;;14.80;3.25;;;21.40;99.90;;;;;;5027939;28;20249;-86
2022/05/13 12:43:15;;;;;;;12.90;3.78;;;21.50;99.90;;;;;;5027796;28;20333;-79
2022/05/13 12:46:03;;;;;;;10.27;3.35;;;21.40;99.90;;;;;;5027788;28;20937;-85
2022/05/13 12:48:32;;;;;;;11.93;3.38;;;21.40;99.90;;;;;;5028124;28;20202;-85
2022/05/13 12:51:20;;;;;;;13.30;3.45;;;21.40;99.90;;;;;;5027478;28;20202;-86
2022/05/13 12:53:51;;;;;;;11.10;3.63;;;21.30;99.90;;;;;;5028999;28;20303;-86
2022/05/13 12:56:27;;;;;;;13.68;3.75;;;21.30;99.90;;;;;;5030121;28;20238;-81
2022/05/13 12:59:00;;;;;;;10.30;3.22;;;21.40;99.90;;;;;;5049666;28;20197;-82
2022/05/13 13:01:29;;;;;;;11.32;3.08;;;21.30;99.90;;;;;;5049192;28;20210;-87
2022/05/13 13:03:58;;;;;;;9.07;3.15;;;21.20;99.90;;;;;;5049295;28;20202;-84
2022/05/13 13:06:35;;;;;;;13.73;3.13;;;21.20;99.90;;;;;;5029518;28;20222;-82
2022/05/13 13:09:02;;;;;;;9.77;2.92;;;21.30;99.90;;;;;;5028337;28;20209;-79
2022/05/13 13:11:34;;;;;;;10.77;3.45;;;21.20;99.90;;;;;;5027190;28;20217;-80
2022/05/13 13:14:10;;;;;;;15.23;3.70;;;21.30;99.90;;;;;;5028500;28;20507;-80
2022/05/13 13:16:41;;;;;;;11.32;3.28;;;21.50;99.90;;;;;;5027263;28;20230;-80
2022/05/13 13:19:14;;;;;;;13.13;3.40;;;21.40;99.90;;;;;;5026379;28;20217;-80
2022/05/13 13:21:42;;;;;;;14.98;3.40;;;21.40;99.90;;;;;;5027240;28;20206;-80
2022/05/13 13:24:19;;;;;;;12.65;3.03;;;21.40;99.90;;;;;;5027430;28;20203;-82
2022/05/13 13:26:50;;;;;;;13.60;3.60;;;21.40;99.90;;;;;;5026305;28;20195;-80
2022/05/13 13:29:22;;;;;;;11.23;3.13;;;21.10;99.90;;;;;;5027615;28;20562;-79
2022/05/13 13:31:51;;;;;;;9.88;3.30;;;21.10;99.90;;;;;;5026194;28;20305;-79